createdAt,value
2018-12-12T00:01:19.613Z,2.30
2018-12-12T00:03:47.825Z,2.30
2018-12-12T00:06:16.081Z,2.30
2018-12-12T00:08:44.733Z,2.40
2018-12-12T00:11:14.514Z,2.20
2018-12-12T00:13:42.736Z,2.20
2018-12-12T00:16:11.040Z,2.20
2018-12-12T00:18:39.266Z,2.30
2018-12-12T00:21:07.997Z,2.10
2018-12-12T00:23:36.202Z,2.20
2018-12-12T00:26:06.069Z,2.20
2018-12-12T00:28:34.428Z,2.10
2018-12-12T00:31:04.171Z,2.10
2018-12-12T00:33:32.650Z,2.00
2018-12-12T00:36:00.990Z,2.10
2018-12-12T00:38:29.350Z,2.10
2018-12-12T00:40:58.282Z,2.20
2018-12-12T00:43:26.648Z,2.10
2018-12-12T00:45:54.869Z,2.10
2018-12-12T00:48:23.107Z,2.00
2018-12-12T00:50:51.449Z,2.20
2018-12-12T00:53:19.825Z,2.30
2018-12-12T00:55:49.567Z,2.30
2018-12-12T00:58:17.950Z,2.40
2018-12-12T01:00:46.158Z,2.10
2018-12-12T01:03:16.796Z,2.20
2018-12-12T01:05:45.145Z,2.30
2018-12-12T01:08:13.528Z,2.30
2018-12-12T01:10:41.879Z,2.20
2018-12-12T01:13:10.245Z,2.10
2018-12-12T01:15:38.599Z,2.00
2018-12-12T01:18:06.849Z,2.10
2018-12-12T01:20:36.396Z,2.10
2018-12-12T01:23:04.763Z,2.10
2018-12-12T01:25:34.986Z,2.10
2018-12-12T01:28:03.250Z,2.10
2018-12-12T01:30:32.789Z,2.00
2018-12-12T01:33:01.038Z,2.00
2018-12-12T01:35:29.386Z,2.00
2018-12-12T01:37:57.655Z,2.00
2018-12-12T01:40:25.874Z,2.00
2018-12-12T01:42:54.130Z,2.00
2018-12-12T01:45:23.682Z,2.10
2018-12-12T01:47:52.622Z,2.10
2018-12-12T01:50:20.930Z,2.00
2018-12-12T01:52:50.753Z,2.00
2018-12-12T01:55:18.983Z,2.00
2018-12-12T01:57:48.739Z,1.90
2018-12-12T02:00:17.012Z,1.90
2018-12-12T02:02:47.217Z,2.00
2018-12-12T02:05:15.456Z,2.00
2018-12-12T02:07:45.610Z,1.90
2018-12-12T02:10:14.064Z,1.90
2018-12-12T02:12:48.321Z,2.00
2018-12-12T02:15:16.687Z,2.00
2018-12-12T02:17:46.534Z,2.10
2018-12-12T02:20:14.781Z,2.20
2018-12-12T02:22:44.638Z,2.00
2018-12-12T02:25:13.773Z,1.90
2018-12-12T02:27:43.605Z,1.90
2018-12-12T02:30:11.853Z,1.90
2018-12-12T02:32:41.497Z,1.90
2018-12-12T02:35:11.762Z,1.90
2018-12-12T02:37:42.009Z,2.00
2018-12-12T02:40:12.266Z,2.00
2018-12-12T02:42:42.511Z,2.00
2018-12-12T02:45:10.763Z,2.20
2018-12-12T02:47:40.797Z,2.00
2018-12-12T02:50:09.612Z,2.00
2018-12-12T02:52:39.166Z,1.90
2018-12-12T02:55:07.416Z,1.90
2018-12-12T02:57:36.964Z,2.00
2018-12-12T03:00:08.355Z,2.00
2018-12-12T03:02:38.841Z,2.10
2018-12-12T03:05:07.121Z,2.20
2018-12-12T03:07:37.067Z,2.20
2018-12-12T03:10:05.547Z,2.30
2018-12-12T03:12:35.376Z,2.30
2018-12-12T03:15:05.042Z,2.20
2018-12-12T03:17:34.587Z,2.30
2018-12-12T03:20:04.292Z,2.30
2018-12-12T03:22:34.522Z,2.30
2018-12-12T03:25:02.734Z,2.30
2018-12-12T03:27:32.503Z,2.30
2018-12-12T03:30:00.865Z,2.30
2018-12-12T03:32:31.767Z,2.10
2018-12-12T03:34:59.982Z,2.30
2018-12-12T03:37:28.225Z,2.20
2018-12-12T03:39:56.747Z,2.30
2018-12-12T03:42:25.374Z,2.40
2018-12-12T03:44:53.577Z,2.20
2018-12-12T03:47:21.951Z,2.30
2018-12-12T03:49:50.185Z,2.30
2018-12-12T03:52:18.421Z,2.30
2018-12-12T03:54:46.669Z,2.30
2018-12-12T03:57:16.082Z,2.30
2018-12-12T03:59:44.320Z,2.40
2018-12-12T04:02:12.652Z,2.40
2018-12-12T04:04:40.855Z,2.40
2018-12-12T04:07:09.222Z,2.40
2018-12-12T04:09:37.422Z,2.40
2018-12-12T04:12:07.078Z,2.20
2018-12-12T04:14:35.406Z,2.10
2018-12-12T04:17:04.979Z,2.20
2018-12-12T04:19:33.183Z,2.20
2018-12-12T04:22:02.962Z,2.20
2018-12-12T04:24:31.358Z,2.20
2018-12-12T04:27:00.933Z,2.20
2018-12-12T04:29:29.146Z,2.20
2018-12-12T04:31:58.699Z,2.30
2018-12-12T04:34:26.949Z,2.30
2018-12-12T04:36:55.157Z,2.20
2018-12-12T04:39:23.393Z,2.20
2018-12-12T04:41:53.121Z,2.20
2018-12-12T04:44:21.979Z,2.20
2018-12-12T04:46:50.186Z,2.10
2018-12-12T04:49:18.433Z,2.10
2018-12-12T04:51:47.977Z,2.10
2018-12-12T04:54:16.222Z,2.10
2018-12-12T04:56:45.842Z,2.20
2018-12-12T04:59:14.470Z,2.20
2018-12-12T05:01:44.218Z,2.30
2018-12-12T05:04:12.625Z,2.30
2018-12-12T05:06:42.260Z,2.30
2018-12-12T05:09:10.501Z,2.30
2018-12-12T05:11:40.732Z,2.10
2018-12-12T05:14:08.979Z,2.00
2018-12-12T05:16:37.787Z,2.00
2018-12-12T05:19:06.053Z,1.90
2018-12-12T05:21:34.270Z,2.10
2018-12-12T05:24:02.723Z,2.10
2018-12-12T05:26:32.173Z,2.10
2018-12-12T05:29:00.422Z,2.20
2018-12-12T05:31:30.268Z,2.00
2018-12-12T05:33:58.501Z,1.90
2018-12-12T05:36:26.698Z,1.80
2018-12-12T05:38:54.938Z,1.90
2018-12-12T05:41:23.148Z,1.90
2018-12-12T05:43:57.477Z,1.90
2018-12-12T05:46:21.638Z,2.00
2018-12-12T05:48:49.897Z,2.00
2018-12-12T05:51:18.116Z,2.00
2018-12-12T05:53:46.341Z,2.00
2018-12-12T05:56:15.983Z,2.20
2018-12-12T05:58:44.226Z,2.20
2018-12-12T06:01:12.466Z,2.10
2018-12-12T06:03:40.724Z,2.10
2018-12-12T06:06:08.939Z,2.10
2018-12-12T06:08:37.180Z,2.10
2018-12-12T06:11:06.824Z,2.20
2018-12-12T06:13:35.066Z,2.20
2018-12-12T06:16:04.606Z,2.20
2018-12-12T06:18:32.855Z,2.10
2018-12-12T06:21:02.403Z,1.90
2018-12-12T06:23:30.663Z,2.10
2018-12-12T06:26:00.198Z,2.20
2018-12-12T06:28:29.004Z,2.00
2018-12-12T06:30:59.034Z,1.90
2018-12-12T06:33:27.238Z,1.90
2018-12-12T06:35:57.020Z,2.10
2018-12-12T06:38:25.226Z,1.90
2018-12-12T06:40:54.793Z,1.80
2018-12-12T06:43:23.019Z,1.80
2018-12-12T06:45:52.788Z,1.90
2018-12-12T06:48:20.995Z,1.90
2018-12-12T06:50:49.243Z,1.90
2018-12-12T06:53:17.458Z,2.00
2018-12-12T06:55:45.703Z,2.10
2018-12-12T06:58:13.925Z,2.00
2018-12-12T07:00:42.161Z,1.90
2018-12-12T07:03:10.377Z,1.90
2018-12-12T07:05:38.614Z,2.00
2018-12-12T07:08:06.833Z,2.10
2018-12-12T07:10:35.098Z,2.10
2018-12-12T07:13:03.305Z,2.10
2018-12-12T07:15:31.565Z,2.10
2018-12-12T07:17:59.775Z,2.00
2018-12-12T07:20:28.445Z,2.20
2018-12-12T07:22:56.660Z,2.00
2018-12-12T07:25:26.138Z,2.10
2018-12-12T07:27:54.374Z,2.20
2018-12-12T07:30:23.950Z,2.20
2018-12-12T07:32:52.165Z,2.10
2018-12-12T07:35:21.745Z,2.20
2018-12-12T07:37:51.400Z,2.00
2018-12-12T07:40:19.655Z,2.10
2018-12-12T07:42:49.398Z,2.20
2018-12-12T07:45:17.631Z,2.20
2018-12-12T07:47:47.294Z,2.20
2018-12-12T07:50:15.761Z,2.10
2018-12-12T07:52:45.297Z,2.20
2018-12-12T07:55:13.558Z,2.10
2018-12-12T07:57:43.096Z,2.20
2018-12-12T08:00:11.352Z,2.30
2018-12-12T08:02:41.580Z,2.30
2018-12-12T08:05:09.822Z,2.10
2018-12-12T08:07:39.502Z,2.20
2018-12-12T08:10:07.746Z,2.30
2018-12-12T08:12:37.506Z,2.40
2018-12-12T08:15:05.718Z,2.40
2018-12-12T08:17:35.490Z,2.30
2018-12-12T08:20:04.414Z,2.20
2018-12-12T08:22:34.585Z,2.20
2018-12-12T08:25:03.132Z,2.30
2018-12-12T08:27:33.421Z,2.30
2018-12-12T08:30:01.641Z,2.30
2018-12-12T08:32:31.923Z,2.20
2018-12-12T08:35:00.139Z,2.20
2018-12-12T08:37:28.388Z,2.10
2018-12-12T08:39:56.607Z,2.10
2018-12-12T08:42:24.884Z,2.20
2018-12-12T08:44:53.234Z,2.30
2018-12-12T08:47:23.006Z,2.20
2018-12-12T08:49:51.231Z,2.30
2018-12-12T08:52:19.597Z,2.40
2018-12-12T08:54:47.827Z,2.30
2018-12-12T08:57:16.170Z,2.30
2018-12-12T08:59:44.808Z,2.40
2018-12-12T09:02:14.519Z,2.40
2018-12-12T09:04:42.754Z,2.30
2018-12-12T09:07:11.085Z,2.20
2018-12-12T09:09:39.689Z,2.20
2018-12-12T09:12:08.035Z,2.30
2018-12-12T09:14:36.798Z,2.30
2018-12-12T09:17:09.598Z,2.20
2018-12-12T09:19:37.242Z,2.40
2018-12-12T09:22:06.882Z,2.40
2018-12-12T09:24:35.244Z,2.40
2018-12-12T09:27:04.841Z,2.50
2018-12-12T09:29:33.113Z,2.50
2018-12-12T09:32:02.170Z,2.50
2018-12-12T09:34:30.637Z,2.50
2018-12-12T09:37:00.281Z,2.50
2018-12-12T09:39:28.526Z,2.50
2018-12-12T09:41:56.946Z,2.40
2018-12-12T09:44:25.390Z,2.50
2018-12-12T09:46:55.053Z,2.50
2018-12-12T09:49:23.998Z,2.60
2018-12-12T09:51:53.538Z,2.60
2018-12-12T09:54:22.123Z,2.60
2018-12-12T09:56:51.769Z,2.50
2018-12-12T09:59:20.138Z,2.60
2018-12-12T10:01:48.703Z,2.60
2018-12-12T10:04:17.974Z,2.60
2018-12-12T10:06:47.309Z,2.60
2018-12-12T10:09:15.679Z,2.60
2018-12-12T10:11:46.387Z,2.60
2018-12-12T10:14:14.767Z,2.60
2018-12-12T10:16:44.386Z,2.70
2018-12-12T10:19:12.631Z,2.70
2018-12-12T10:21:41.154Z,2.90
2018-12-12T10:24:09.726Z,2.80
2018-12-12T10:26:38.165Z,2.90
2018-12-12T10:29:06.652Z,3.00
2018-12-12T10:31:36.471Z,3.10
2018-12-12T10:34:05.737Z,3.10
2018-12-12T10:36:35.605Z,3.10
2018-12-12T10:39:07.068Z,3.20
2018-12-12T10:41:37.448Z,3.10
2018-12-12T10:44:05.825Z,3.30
2018-12-12T10:46:35.250Z,3.10
2018-12-12T10:49:03.737Z,3.20
2018-12-12T10:51:34.031Z,3.30
2018-12-12T10:54:02.513Z,3.30
2018-12-12T10:56:32.013Z,3.30
2018-12-12T10:59:00.946Z,3.30
2018-12-12T11:01:32.344Z,3.30
2018-12-12T11:04:02.672Z,3.30
2018-12-12T11:06:32.695Z,3.30
2018-12-12T11:09:01.418Z,3.20
2018-12-12T11:11:31.703Z,3.30
2018-12-12T11:14:00.383Z,3.40
2018-12-12T11:16:31.358Z,3.40
2018-12-12T11:19:00.477Z,3.30
2018-12-12T11:21:31.368Z,3.30
2018-12-12T11:24:00.436Z,3.30
2018-12-12T11:26:30.214Z,3.40
2018-12-12T11:28:58.436Z,3.40
2018-12-12T11:31:26.786Z,3.30
2018-12-12T11:33:55.126Z,3.30
2018-12-12T11:36:23.487Z,3.30
2018-12-12T11:38:52.449Z,3.40
2018-12-12T11:41:22.103Z,3.30
2018-12-12T11:43:50.353Z,3.40
2018-12-12T11:46:20.133Z,3.30
2018-12-12T11:48:48.360Z,3.20
2018-12-12T11:51:16.721Z,3.10
2018-12-12T11:53:46.371Z,3.10
2018-12-12T11:56:15.165Z,3.20
2018-12-12T11:58:43.497Z,3.10
2018-12-12T12:01:13.598Z,3.30
2018-12-12T12:03:41.844Z,3.40
2018-12-12T12:06:12.101Z,3.40
2018-12-12T12:08:40.952Z,3.50
2018-12-12T12:11:10.778Z,3.50
2018-12-12T12:13:39.050Z,3.50
2018-12-12T12:16:08.779Z,3.60
2018-12-12T12:18:37.266Z,3.70
2018-12-12T12:21:07.448Z,4.20
2018-12-12T12:23:36.197Z,4.40
2018-12-12T12:26:05.818Z,4.40
2018-12-12T12:28:34.163Z,4.40
2018-12-12T12:31:03.843Z,4.40
2018-12-12T12:33:32.504Z,4.40
2018-12-12T12:36:00.750Z,4.30
2018-12-12T12:38:30.214Z,4.30
2018-12-12T12:40:59.951Z,4.70
2018-12-12T12:43:28.188Z,6.40
2018-12-12T12:45:56.410Z,7.80
2018-12-12T12:48:25.230Z,8.60
2018-12-12T12:50:54.762Z,8.80
2018-12-12T12:53:22.983Z,9.10
2018-12-12T12:55:53.231Z,9.00
2018-12-12T12:58:21.471Z,8.40
2018-12-12T13:00:51.107Z,7.70
2018-12-12T13:03:19.926Z,7.00
2018-12-12T13:05:48.122Z,6.50
2018-12-12T13:08:17.397Z,6.40
2018-12-12T13:10:45.621Z,6.10
2018-12-12T13:13:14.281Z,5.80
2018-12-12T13:15:42.998Z,5.60
2018-12-12T13:18:11.602Z,5.40
2018-12-12T13:20:41.025Z,5.10
2018-12-12T13:23:09.379Z,4.90
2018-12-12T13:25:37.855Z,4.90
2018-12-12T13:28:06.112Z,4.90
2018-12-12T13:30:34.315Z,4.80
2018-12-12T13:33:02.513Z,4.80
2018-12-12T13:35:32.287Z,4.60
2018-12-12T13:38:00.484Z,4.30
2018-12-12T13:40:30.630Z,4.10
2018-12-12T13:42:59.486Z,4.00
2018-12-12T13:45:29.179Z,3.90
2018-12-12T13:47:58.097Z,4.00
2018-12-12T13:50:27.250Z,4.30
2018-12-12T13:52:55.582Z,4.30
2018-12-12T13:55:24.692Z,4.40
2018-12-12T13:57:53.685Z,4.30
2018-12-12T14:00:21.909Z,4.10
2018-12-12T14:02:51.633Z,4.10
2018-12-12T14:05:19.987Z,4.00
2018-12-12T14:07:50.294Z,3.80
2018-12-12T14:10:18.515Z,3.80
2018-12-12T14:12:48.038Z,3.70
2018-12-12T14:15:16.821Z,3.80
2018-12-12T14:17:46.343Z,3.70
2018-12-12T14:20:14.743Z,3.60
2018-12-12T14:22:44.858Z,3.60
2018-12-12T14:25:13.079Z,3.60
2018-12-12T14:27:42.815Z,3.50
2018-12-12T14:30:11.060Z,3.50
2018-12-12T14:32:40.802Z,3.50
2018-12-12T14:35:09.215Z,3.50
2018-12-12T14:37:38.738Z,3.50
2018-12-12T14:40:07.607Z,3.50
2018-12-12T14:42:37.265Z,3.50
2018-12-12T14:45:05.552Z,3.50
2018-12-12T14:47:35.706Z,3.40
2018-12-12T14:50:04.432Z,3.40
2018-12-12T14:52:34.112Z,3.40
2018-12-12T14:55:02.525Z,3.40
2018-12-12T14:57:32.790Z,3.40
2018-12-12T15:00:00.982Z,3.40
2018-12-12T15:02:31.234Z,3.30
2018-12-12T15:04:59.483Z,3.30
2018-12-12T15:07:27.848Z,3.10
2018-12-12T15:09:58.673Z,3.00
2018-12-12T15:12:28.231Z,3.20
2018-12-12T15:14:56.650Z,3.20
2018-12-12T15:17:26.359Z,3.30
2018-12-12T15:19:54.567Z,3.20
2018-12-12T15:22:24.216Z,3.10
2018-12-12T15:24:52.417Z,3.10
2018-12-12T15:27:21.974Z,3.00
2018-12-12T15:29:50.406Z,3.00
2018-12-12T15:32:18.786Z,3.10
2018-12-12T15:34:46.982Z,3.20
2018-12-12T15:37:16.641Z,3.10
2018-12-12T15:39:45.096Z,3.10
2018-12-12T15:42:13.349Z,3.10
2018-12-12T15:44:41.576Z,3.00
2018-12-12T15:47:09.821Z,3.00
2018-12-12T15:49:38.333Z,2.90
2018-12-12T15:52:08.089Z,3.00
2018-12-12T15:54:36.624Z,3.00
2018-12-12T15:57:04.889Z,3.00
2018-12-12T15:59:35.350Z,3.00
2018-12-12T16:02:05.140Z,3.00
2018-12-12T16:04:33.462Z,2.90
2018-12-12T16:07:01.797Z,2.90
2018-12-12T16:09:30.483Z,2.90
2018-12-12T16:11:58.677Z,2.90
2018-12-12T16:14:26.898Z,2.90
2018-12-12T16:16:56.538Z,2.80
2018-12-12T16:19:24.768Z,2.60
2018-12-12T16:21:53.085Z,2.50
2018-12-12T16:24:21.934Z,2.50
2018-12-12T16:26:51.681Z,2.60
2018-12-12T16:29:20.005Z,2.40
2018-12-12T16:31:48.231Z,2.40
2018-12-12T16:34:17.193Z,2.40
2018-12-12T16:36:46.831Z,2.40
2018-12-12T16:39:15.068Z,2.40
2018-12-12T16:41:43.805Z,2.30
2018-12-12T16:44:12.041Z,2.30
2018-12-12T16:46:41.572Z,2.30
2018-12-12T16:49:09.934Z,2.30
2018-12-12T16:51:38.136Z,2.20
2018-12-12T16:54:06.372Z,2.20
2018-12-12T16:56:35.798Z,2.20
2018-12-12T16:59:04.045Z,2.20
2018-12-12T17:01:33.778Z,2.20
2018-12-12T17:04:02.138Z,2.30
2018-12-12T17:06:30.363Z,2.20
2018-12-12T17:08:58.579Z,2.20
2018-12-12T17:11:26.815Z,2.10
2018-12-12T17:13:55.046Z,2.20
2018-12-12T17:16:24.916Z,2.20
2018-12-12T17:18:53.120Z,2.20
2018-12-12T17:21:23.402Z,2.20
2018-12-12T17:23:51.742Z,2.10
2018-12-12T17:26:22.035Z,2.10
2018-12-12T17:28:50.521Z,2.20
2018-12-12T17:31:19.979Z,2.00
2018-12-12T17:33:48.177Z,2.00
2018-12-12T17:36:17.750Z,1.90
2018-12-12T17:38:47.972Z,1.80
2018-12-12T17:41:16.206Z,1.90
2018-12-12T17:43:44.410Z,1.80
2018-12-12T17:46:13.972Z,1.70
2018-12-12T17:48:42.173Z,1.70
2018-12-12T17:51:10.406Z,1.70
2018-12-12T17:53:38.614Z,1.60
2018-12-12T17:56:08.079Z,1.60
2018-12-12T17:58:36.283Z,1.50
2018-12-12T18:01:04.512Z,1.40
2018-12-12T18:03:32.727Z,1.40
2018-12-12T18:06:00.967Z,1.30
2018-12-12T18:08:29.174Z,1.20
2018-12-12T18:10:58.655Z,1.20
2018-12-12T18:13:27.054Z,1.20
2018-12-12T18:15:55.294Z,1.20
2018-12-12T18:18:23.526Z,1.10
2018-12-12T18:20:53.155Z,1.20
2018-12-12T18:23:21.408Z,1.20
2018-12-12T18:25:49.827Z,1.10
2018-12-12T18:28:18.126Z,1.10
2018-12-12T18:30:48.048Z,1.10
2018-12-12T18:33:16.329Z,1.00
2018-12-12T18:35:45.848Z,1.00
2018-12-12T18:38:15.597Z,0.90
2018-12-12T18:40:45.270Z,0.80
2018-12-12T18:43:13.727Z,0.80
2018-12-12T18:45:42.521Z,0.80
2018-12-12T18:48:11.320Z,0.80
2018-12-12T18:50:40.129Z,0.80
2018-12-12T18:53:08.360Z,0.80
2018-12-12T18:55:37.965Z,0.80
2018-12-12T18:58:06.208Z,0.60
2018-12-12T19:00:34.536Z,0.60
2018-12-12T19:03:02.768Z,0.60
2018-12-12T19:05:32.423Z,0.50
2018-12-12T19:08:00.685Z,0.50
2018-12-12T19:10:29.004Z,0.40
2018-12-12T19:12:57.366Z,0.40
2018-12-12T19:15:25.578Z,0.40
2018-12-12T19:17:53.837Z,0.40
2018-12-12T19:20:22.125Z,0.30
2018-12-12T19:22:51.793Z,0.40
2018-12-12T19:25:20.031Z,0.30
2018-12-12T19:27:49.819Z,0.50
2018-12-12T19:30:18.058Z,0.40
2018-12-12T19:32:47.622Z,0.50
2018-12-12T19:35:16.397Z,0.50
2018-12-12T19:37:45.973Z,0.40
2018-12-12T19:40:14.190Z,0.30
2018-12-12T19:42:43.980Z,0.30
2018-12-12T19:45:12.318Z,0.20
2018-12-12T19:47:41.902Z,0.30
2018-12-12T19:50:10.159Z,0.10
2018-12-12T19:52:40.095Z,0.20
2018-12-12T19:55:08.356Z,0.30
2018-12-12T19:57:37.972Z,0.40
2018-12-12T20:00:06.535Z,0.20
2018-12-12T20:02:36.769Z,0.30
2018-12-12T20:05:05.507Z,0.50
2018-12-12T20:07:35.243Z,0.60
2018-12-12T20:10:03.685Z,0.60
2018-12-12T20:12:33.620Z,0.70
2018-12-12T20:15:01.857Z,0.70
2018-12-12T20:17:32.098Z,0.80
2018-12-12T20:20:00.484Z,0.80
2018-12-12T20:22:30.748Z,0.90
2018-12-12T20:24:59.047Z,0.90
2018-12-12T20:27:27.570Z,0.90
2018-12-12T20:29:55.822Z,0.90
2018-12-12T20:32:25.362Z,1.00
2018-12-12T20:34:53.615Z,0.80
2018-12-12T20:37:21.843Z,0.80
2018-12-12T20:39:50.106Z,0.80
2018-12-12T20:42:19.652Z,0.60
2018-12-12T20:44:47.893Z,0.40
2018-12-12T20:47:17.425Z,0.30
2018-12-12T20:49:45.790Z,0.50
2018-12-12T20:52:14.010Z,0.60
2018-12-12T20:54:42.270Z,0.70
2018-12-12T20:57:10.522Z,0.90
2018-12-12T20:59:38.881Z,1.00
2018-12-12T21:02:08.636Z,1.00
2018-12-12T21:04:37.514Z,1.00
2018-12-12T21:07:07.151Z,1.00
2018-12-12T21:09:35.427Z,1.00
2018-12-12T21:12:04.149Z,0.90
2018-12-12T21:14:32.493Z,0.90
2018-12-12T21:17:00.832Z,1.00
2018-12-12T21:19:29.169Z,1.00
2018-12-12T21:21:57.641Z,1.00
2018-12-12T21:24:25.864Z,1.00
2018-12-12T21:26:54.265Z,1.00
2018-12-12T21:29:22.490Z,1.00
2018-12-12T21:31:50.753Z,0.90
2018-12-12T21:34:19.082Z,0.90
2018-12-12T21:36:47.438Z,0.90
2018-12-12T21:39:16.653Z,0.80
2018-12-12T21:41:46.919Z,0.70
2018-12-12T21:44:15.145Z,0.70
2018-12-12T21:46:45.410Z,0.70
2018-12-12T21:49:13.945Z,0.50
2018-12-12T21:51:43.718Z,0.50
2018-12-12T21:54:11.941Z,0.40
2018-12-12T21:56:41.830Z,0.50
2018-12-12T21:59:10.509Z,0.40
2018-12-12T22:01:39.069Z,0.30
2018-12-12T22:04:07.460Z,0.30
2018-12-12T22:06:35.745Z,0.30
2018-12-12T22:09:05.674Z,0.30
2018-12-12T22:11:35.945Z,0.30
2018-12-12T22:14:04.164Z,0.20
2018-12-12T22:16:34.030Z,0.20
2018-12-12T22:19:02.245Z,0.10
2018-12-12T22:21:31.518Z,0.10
2018-12-12T22:23:59.859Z,0.00
2018-12-12T22:26:29.456Z,0.00
2018-12-12T22:28:57.662Z,0.00
2018-12-12T22:31:25.873Z,0.00
2018-12-12T22:33:54.135Z,-0.10
2018-12-12T22:36:23.674Z,-0.20
2018-12-12T22:38:52.038Z,-0.10
2018-12-12T22:41:21.757Z,0.00
2018-12-12T22:43:50.126Z,-0.10
2018-12-12T22:46:19.561Z,-0.10
2018-12-12T22:48:48.161Z,-0.10
2018-12-12T22:51:16.587Z,-0.10
2018-12-12T22:53:45.073Z,0.00
2018-12-12T22:56:15.214Z,-0.10
2018-12-12T22:58:43.441Z,-0.10
2018-12-12T23:01:13.656Z,0.00
2018-12-12T23:03:43.914Z,0.00
2018-12-12T23:06:13.555Z,-0.10
2018-12-12T23:08:41.999Z,-0.20
2018-12-12T23:11:11.592Z,-0.20
2018-12-12T23:13:39.992Z,-0.10
2018-12-12T23:16:10.217Z,-0.10
2018-12-12T23:18:39.637Z,-0.10
2018-12-12T23:21:08.176Z,0.00
2018-12-12T23:23:38.002Z,0.00
2018-12-12T23:26:06.513Z,0.10
2018-12-12T23:28:35.665Z,0.00
2018-12-12T23:31:04.139Z,0.00
2018-12-12T23:33:33.106Z,0.00
2018-12-12T23:36:02.149Z,0.10
2018-12-12T23:38:30.602Z,0.10
2018-12-12T23:40:59.362Z,0.10
2018-12-12T23:43:27.593Z,0.20
2018-12-12T23:45:57.388Z,0.10
2018-12-12T23:48:25.600Z,0.10
2018-12-12T23:50:53.857Z,0.10
2018-12-12T23:53:22.225Z,0.20
2018-12-12T23:55:50.572Z,0.20
2018-12-12T23:58:19.460Z,0.20
